Time;durP1;ratioP1;P1;durP2;ratioP2;P2;SDS_P1;SDS_P2;PMS_P1;PMS_P2;Temp;Humidity;BMP_temperature;BMP_pressure;BME280_temperature;BME280_humidity;BME280_pressure;Samples;Min_cycle;Max_cycle;Signal;HPM_P1;HPM_P2
2022/08/29 00:01:30;;;;;;;3.95;3.75;;;;;;;;;;5206338;28;20022;-78
2022/08/29 00:04:00;;;;;;;4.05;3.65;;;;;;;;;;5205701;28;20060;-78
2022/08/29 00:06:31;;;;;;;3.28;3.08;;;;;;;;;;5206313;28;20022;-79
2022/08/29 00:09:01;;;;;;;3.00;2.90;;;;;;;;;;5188894;28;20115;-78
2022/08/29 00:11:31;;;;;;;6.57;4.22;;;;;;;;;;5206550;28;20359;-79
2022/08/29 00:14:01;;;;;;;3.58;3.38;;;;;;;;;;5188198;28;20536;-79
2022/08/29 00:16:32;;;;;;;2.80;2.67;;;;;;;;;;5206566;28;20499;-79
2022/08/29 00:19:02;;;;;;;3.45;3.25;;;;;;;;;;5210066;28;20010;-79
2022/08/29 00:21:32;;;;;;;3.40;3.13;;;;;;;;;;5208928;28;20025;-79
2022/08/29 00:24:03;;;;;;;3.63;3.33;;;;;;;;;;5208241;28;20021;-79
2022/08/29 00:26:34;;;;;;;3.63;3.33;;;;;;;;;;5209238;28;20295;-79
2022/08/29 00:29:04;;;;;;;7.53;5.47;;;;;;;;;;5209319;28;20382;-79
2022/08/29 00:31:34;;;;;;;4.30;4.00;;;;;;;;;;5207502;28;20108;-79
2022/08/29 00:34:05;;;;;;;5.78;3.90;;;;;;;;;;5189304;28;20296;-79
2022/08/29 00:36:35;;;;;;;5.20;3.78;;;;;;;;;;5190454;28;20383;-79
2022/08/29 00:39:05;;;;;;;3.40;3.20;;;;;;;;;;5207229;28;20097;-78
2022/08/29 00:41:35;;;;;;;6.03;4.68;;;;;;;;;;5207855;28;20017;-79
2022/08/29 00:44:06;;;;;;;3.83;3.58;;;;;;;;;;5206825;28;20026;-79
2022/08/29 00:46:37;;;;;;;5.97;5.47;;;;;;;;;;5208163;28;20030;-79
2022/08/29 00:49:10;;;;;;;4.47;4.28;;;;;;;;;;5208039;28;20082;-79
2022/08/29 00:51:40;;;;;;;5.28;4.70;;;;;;;;;;5207974;28;20068;-79
2022/08/29 00:54:11;;;;;;;6.80;4.05;;;;;;;;;;5207098;28;20048;-78
2022/08/29 00:56:43;;;;;;;3.92;3.72;;;;;;;;;;5208270;28;20451;-78
2022/08/29 00:59:17;;;;;;;6.85;4.90;;;;;;;;;;5189642;28;20021;-79
2022/08/29 01:01:48;;;;;;;3.38;3.25;;;;;;;;;;5190014;28;20025;-78
2022/08/29 01:04:18;;;;;;;4.68;4.30;;;;;;;;;;5207070;28;20029;-80
2022/08/29 01:06:48;;;;;;;8.13;4.68;;;;;;;;;;5208021;28;20118;-79
2022/08/29 01:09:19;;;;;;;5.38;4.75;;;;;;;;;;5207871;28;20036;-80
2022/08/29 01:14:40;;;;;;;4.75;4.45;;;;;;;;;;5207252;28;20089;-78
2022/08/29 01:17:10;;;;;;;3.42;3.13;;;;;;;;;;5193216;28;20037;-80
2022/08/29 01:19:46;;;;;;;5.72;3.25;;;;;;;;;;5212809;28;20028;-78
2022/08/29 01:22:16;;;;;;;4.88;4.50;;;;;;;;;;5212808;28;20014;-78
2022/08/29 01:24:49;;;;;;;4.75;4.35;;;;;;;;;;5196676;28;20026;-79
2022/08/29 01:27:21;;;;;;;5.68;5.25;;;;;;;;;;5215238;28;20027;-79
2022/08/29 01:29:51;;;;;;;5.07;3.70;;;;;;;;;;5214411;28;20100;-80
2022/08/29 01:32:22;;;;;;;5.35;4.90;;;;;;;;;;5194874;28;20064;-79
2022/08/29 01:34:53;;;;;;;4.63;4.22;;;;;;;;;;5193322;28;20536;-79
2022/08/29 01:37:25;;;;;;;5.40;4.22;;;;;;;;;;5211410;28;20096;-79
2022/08/29 01:39:55;;;;;;;8.05;3.35;;;;;;;;;;5210653;28;20028;-79
2022/08/29 01:42:25;;;;;;;5.05;4.65;;;;;;;;;;5193574;28;20022;-79
2022/08/29 01:44:57;;;;;;;5.15;4.85;;;;;;;;;;5210616;28;20029;-79
2022/08/29 01:47:28;;;;;;;5.70;5.20;;;;;;;;;;5210805;28;20040;-79
2022/08/29 01:50:00;;;;;;;4.07;3.80;;;;;;;;;;5210687;28;20128;-79
2022/08/29 01:52:31;;;;;;;4.60;4.30;;;;;;;;;;5210387;28;20030;-79
2022/08/29 01:55:01;;;;;;;4.30;4.00;;;;;;;;;;5209843;28;20032;-79
2022/08/29 01:57:31;;;;;;;4.60;4.13;;;;;;;;;;5211776;28;20100;-79
2022/08/29 02:00:04;;;;;;;7.13;4.57;;;;;;;;;;5211512;28;20025;-79
2022/08/29 02:02:35;;;;;;;5.80;5.03;;;;;;;;;;5210784;28;20096;-79
2022/08/29 02:05:06;;;;;;;5.88;5.53;;;;;;;;;;5210223;28;20084;-79
2022/08/29 02:07:36;;;;;;;7.05;6.40;;;;;;;;;;5210661;28;20075;-79
2022/08/29 02:10:06;;;;;;;5.40;4.88;;;;;;;;;;5210268;28;20057;-79
2022/08/29 02:12:37;;;;;;;5.47;5.07;;;;;;;;;;5192553;28;20280;-79
2022/08/29 02:15:07;;;;;;;4.80;4.40;;;;;;;;;;5190960;28;20033;-78
2022/08/29 02:17:37;;;;;;;5.45;4.90;;;;;;;;;;5210365;28;20108;-79
2022/08/29 02:20:08;;;;;;;11.57;5.05;;;;;;;;;;5209430;28;20483;-80
2022/08/29 02:22:39;;;;;;;5.68;5.22;;;;;;;;;;5209990;28;20017;-80
2022/08/29 02:27:58;;;;;;;6.05;5.50;;;;;;;;;;5210382;28;20036;-79
2022/08/29 02:30:28;;;;;;;12.10;7.10;;;;;;;;;;5192007;28;20448;-79
2022/08/29 02:32:59;;;;;;;5.15;4.65;;;;;;;;;;5209488;28;20103;-79
2022/08/29 02:35:29;;;;;;;6.97;6.43;;;;;;;;;;5208464;28;20033;-78
2022/08/29 02:38:00;;;;;;;7.28;5.45;;;;;;;;;;5208855;28;20414;-79
2022/08/29 02:40:31;;;;;;;7.30;5.65;;;;;;;;;;5209006;28;20037;-79
2022/08/29 02:43:02;;;;;;;5.68;5.38;;;;;;;;;;5207953;28;20449;-79
2022/08/29 02:45:34;;;;;;;7.85;7.05;;;;;;;;;;5188964;28;20017;-79
2022/08/29 02:48:05;;;;;;;7.03;6.43;;;;;;;;;;5190655;28;20029;-79
2022/08/29 02:50:38;;;;;;;5.20;4.80;;;;;;;;;;5208960;28;20026;-79
2022/08/29 02:53:09;;;;;;;7.97;6.72;;;;;;;;;;5208585;28;20033;-79
2022/08/29 02:55:39;;;;;;;6.72;6.38;;;;;;;;;;5207774;28;20029;-78
2022/08/29 02:58:09;;;;;;;7.70;6.10;;;;;;;;;;5209005;28;20025;-77
2022/08/29 03:00:40;;;;;;;6.57;6.03;;;;;;;;;;5190940;28;20128;-79
2022/08/29 03:03:10;;;;;;;8.50;7.57;;;;;;;;;;5208158;28;20160;-79
2022/08/29 03:05:41;;;;;;;6.55;6.03;;;;;;;;;;5206352;28;20072;-79
2022/08/29 03:08:15;;;;;;;9.82;6.40;;;;;;;;;;5206680;28;20047;-78
2022/08/29 03:10:45;;;;;;;6.32;5.93;;;;;;;;;;5206839;28;20423;-78
2022/08/29 03:13:16;;;;;;;6.57;5.80;;;;;;;;;;5188750;28;20035;-79
2022/08/29 03:15:47;;;;;;;6.03;5.63;;;;;;;;;;5206331;28;20041;-78
2022/08/29 03:18:17;;;;;;;8.50;7.43;;;;;;;;;;5206555;28;20460;-79
2022/08/29 03:20:47;;;;;;;8.95;7.28;;;;;;;;;;5188566;28;20014;-79
2022/08/29 03:23:18;;;;;;;8.17;7.17;;;;;;;;;;5188433;28;20017;-78
2022/08/29 03:25:49;;;;;;;9.82;6.32;;;;;;;;;;5188597;28;20264;-78
2022/08/29 03:28:19;;;;;;;7.18;5.38;;;;;;;;;;5188845;28;20029;-78
2022/08/29 03:30:49;;;;;;;6.90;5.82;;;;;;;;;;5206720;28;20541;-78
2022/08/29 03:33:20;;;;;;;11.57;7.60;;;;;;;;;;5206513;28;20026;-78
2022/08/29 03:35:50;;;;;;;6.97;6.35;;;;;;;;;;5186388;28;20017;-79
2022/08/29 03:38:21;;;;;;;6.97;5.68;;;;;;;;;;5206684;28;20443;-78
2022/08/29 03:40:52;;;;;;;8.48;4.43;;;;;;;;;;5207816;28;20017;-79
2022/08/29 03:43:22;;;;;;;6.40;5.80;;;;;;;;;;5189972;28;20115;-78
2022/08/29 03:45:53;;;;;;;6.57;6.07;;;;;;;;;;5208051;28;20017;-79
2022/08/29 03:48:23;;;;;;;5.60;5.07;;;;;;;;;;5208049;28;20018;-78
2022/08/29 03:50:53;;;;;;;7.93;5.70;;;;;;;;;;5207510;28;20021;-78
2022/08/29 03:53:24;;;;;;;8.82;6.35;;;;;;;;;;5207891;28;20378;-78
2022/08/29 03:55:54;;;;;;;7.63;7.07;;;;;;;;;;5208963;28;20025;-77
2022/08/29 03:58:24;;;;;;;8.18;7.47;;;;;;;;;;5208281;28;20031;-79
2022/08/29 04:00:54;;;;;;;8.00;7.38;;;;;;;;;;5208788;28;20032;-79
2022/08/29 04:03:25;;;;;;;9.95;7.95;;;;;;;;;;5209857;28;20458;-78
2022/08/29 04:05:55;;;;;;;8.82;6.35;;;;;;;;;;5209376;28;20360;-78
2022/08/29 04:08:26;;;;;;;10.07;6.37;;;;;;;;;;5213846;28;20048;-80
2022/08/29 04:10:56;;;;;;;6.97;6.50;;;;;;;;;;5221633;28;20264;-79
2022/08/29 04:13:26;;;;;;;6.78;6.15;;;;;;;;;;5221569;28;20067;-79
2022/08/29 04:15:56;;;;;;;7.07;6.45;;;;;;;;;;5207189;28;20076;-79
2022/08/29 04:18:27;;;;;;;6.07;5.67;;;;;;;;;;5220505;28;20072;-79
2022/08/29 04:21:00;;;;;;;8.02;7.38;;;;;;;;;;5211527;28;20318;-80
2022/08/29 04:23:31;;;;;;;9.70;6.88;;;;;;;;;;5196026;28;20024;-79
2022/08/29 04:26:01;;;;;;;6.80;6.03;;;;;;;;;;5212589;28;20025;-80
2022/08/29 04:28:31;;;;;;;9.60;6.22;;;;;;;;;;5195234;28;20021;-79
2022/08/29 04:31:02;;;;;;;18.13;6.72;;;;;;;;;;5212372;28;20033;-79
2022/08/29 04:33:32;;;;;;;8.30;6.43;;;;;;;;;;5191532;28;20091;-79
2022/08/29 04:36:04;;;;;;;7.97;7.40;;;;;;;;;;5208373;28;20024;-79
2022/08/29 04:38:35;;;;;;;10.65;7.53;;;;;;;;;;5207674;28;20016;-79
2022/08/29 04:41:13;;;;;;;7.72;7.03;;;;;;;;;;5206154;28;20096;-79
2022/08/29 04:43:47;;;;;;;6.88;6.38;;;;;;;;;;5189366;28;20013;-79
2022/08/29 04:46:17;;;;;;;7.20;6.72;;;;;;;;;;5207732;28;20025;-79
2022/08/29 04:48:47;;;;;;;7.60;7.00;;;;;;;;;;5207873;28;20017;-79
2022/08/29 04:51:17;;;;;;;10.35;6.57;;;;;;;;;;5205819;28;20029;-78
2022/08/29 04:53:51;;;;;;;10.50;9.65;;;;;;;;;;5206710;28;20412;-79
2022/08/29 04:56:22;;;;;;;11.98;8.02;;;;;;;;;;5188842;28;20021;-78
2022/08/29 04:58:52;;;;;;;11.27;7.53;;;;;;;;;;5207065;28;20056;-78
2022/08/29 05:01:23;;;;;;;10.25;8.20;;;;;;;;;;5206695;28;20072;-79
2022/08/29 05:03:55;;;;;;;9.00;8.10;;;;;;;;;;5188471;28;20177;-79
2022/08/29 05:06:25;;;;;;;9.27;8.55;;;;;;;;;;5206385;28;20104;-79
2022/08/29 05:08:56;;;;;;;7.57;6.95;;;;;;;;;;5206785;28;20073;-79
2022/08/29 05:11:27;;;;;;;8.13;7.35;;;;;;;;;;5206191;28;20479;-79
2022/08/29 05:13:58;;;;;;;7.45;6.95;;;;;;;;;;5206336;28;20096;-79
2022/08/29 05:16:29;;;;;;;7.60;6.90;;;;;;;;;;5207644;28;20049;-79
2022/08/29 05:18:59;;;;;;;10.15;8.75;;;;;;;;;;5206602;28;20057;-78
2022/08/29 05:21:31;;;;;;;8.23;7.63;;;;;;;;;;5206366;28;20079;-79
2022/08/29 05:24:04;;;;;;;8.55;7.88;;;;;;;;;;5205820;28;20333;-79
2022/08/29 05:26:36;;;;;;;9.45;8.05;;;;;;;;;;5188156;28;20112;-79
2022/08/29 05:29:07;;;;;;;7.15;6.75;;;;;;;;;;5198092;28;20615;-79
2022/08/29 05:31:39;;;;;;;9.18;7.80;;;;;;;;;;5200909;22;20030;-81
2022/08/29 05:34:11;;;;;;;9.05;8.23;;;;;;;;;;5188054;28;20478;-82
2022/08/29 05:36:41;;;;;;;8.45;7.63;;;;;;;;;;5206848;28;20087;-83
2022/08/29 05:39:11;;;;;;;7.03;6.53;;;;;;;;;;5206222;28;20018;-83
2022/08/29 05:41:42;;;;;;;13.05;8.07;;;;;;;;;;5206694;28;20232;-82
2022/08/29 05:44:12;;;;;;;12.27;6.70;;;;;;;;;;5188312;28;20398;-82
2022/08/29 05:46:42;;;;;;;8.85;8.05;;;;;;;;;;5188758;28;20275;-82
2022/08/29 05:49:13;;;;;;;9.23;8.40;;;;;;;;;;5188307;28;20547;-81
2022/08/29 05:51:43;;;;;;;8.80;8.10;;;;;;;;;;5205628;28;20471;-83
2022/08/29 05:54:14;;;;;;;10.70;8.77;;;;;;;;;;5206078;28;20040;-83
2022/08/29 05:56:44;;;;;;;10.60;9.47;;;;;;;;;;5205819;28;20284;-82
2022/08/29 05:59:15;;;;;;;8.70;7.88;;;;;;;;;;5205476;28;20268;-80
2022/08/29 06:01:46;;;;;;;8.75;8.10;;;;;;;;;;5205747;28;20033;-80
2022/08/29 06:04:16;;;;;;;11.20;9.13;;;;;;;;;;5208664;28;20018;-81
2022/08/29 06:06:46;;;;;;;8.25;7.60;;;;;;;;;;5209504;28;20336;-81
2022/08/29 06:09:16;;;;;;;9.45;8.30;;;;;;;;;;5208979;28;20119;-81
2022/08/29 06:11:48;;;;;;;10.02;8.10;;;;;;;;;;5208950;28;20026;-81
2022/08/29 06:14:19;;;;;;;10.80;9.90;;;;;;;;;;5209082;28;20047;-80
2022/08/29 06:16:50;;;;;;;12.95;8.00;;;;;;;;;;5209346;28;20031;-82
2022/08/29 06:19:20;;;;;;;11.48;10.38;;;;;;;;;;5208796;28;20517;-81
2022/08/29 06:21:53;;;;;;;11.27;10.15;;;;;;;;;;5209196;28;20021;-80
2022/08/29 06:24:23;;;;;;;10.45;9.23;;;;;;;;;;5191676;28;20040;-81
2022/08/29 06:26:53;;;;;;;9.38;8.40;;;;;;;;;;5210018;28;20017;-83
2022/08/29 06:29:25;;;;;;;8.82;7.97;;;;;;;;;;5192176;28;20087;-84
2022/08/29 06:31:56;;;;;;;10.30;8.15;;;;;;;;;;5191578;28;20041;-82
2022/08/29 06:34:27;;;;;;;13.73;7.50;;;;;;;;;;5209937;28;20018;-82
2022/08/29 06:36:58;;;;;;;10.52;8.15;;;;;;;;;;5207327;28;20036;-80
2022/08/29 06:39:28;;;;;;;11.32;9.20;;;;;;;;;;5209802;28;20033;-81
2022/08/29 06:41:59;;;;;;;12.65;8.55;;;;;;;;;;5210002;28;20057;-81
2022/08/29 06:44:30;;;;;;;8.00;7.05;;;;;;;;;;5209164;28;20020;-81
2022/08/29 06:47:00;;;;;;;7.43;6.47;;;;;;;;;;5210352;28;20038;-80
2022/08/29 06:49:32;;;;;;;8.88;8.13;;;;;;;;;;5192321;28;20479;-80
2022/08/29 06:52:02;;;;;;;8.35;7.50;;;;;;;;;;5191510;28;20025;-80
2022/08/29 06:54:32;;;;;;;9.57;6.47;;;;;;;;;;5190974;28;20032;-81
2022/08/29 06:57:03;;;;;;;6.38;5.80;;;;;;;;;;5209492;28;20024;-82
2022/08/29 06:59:34;;;;;;;9.25;6.22;;;;;;;;;;5209525;28;20013;-84
2022/08/29 07:02:04;;;;;;;11.80;8.77;;;;;;;;;;5210395;28;20022;-83
2022/08/29 07:04:34;;;;;;;8.43;5.75;;;;;;;;;;5192200;28;20025;-81
2022/08/29 07:07:04;;;;;;;8.00;6.72;;;;;;;;;;5209299;28;20032;-81
2022/08/29 07:09:35;;;;;;;6.88;5.30;;;;;;;;;;5209500;28;20029;-82
2022/08/29 07:12:05;;;;;;;6.25;5.55;;;;;;;;;;5209961;28;20052;-81
2022/08/29 07:14:35;;;;;;;4.57;4.18;;;;;;;;;;5208126;28;20077;-80
2022/08/29 07:17:05;;;;;;;8.00;4.72;;;;;;;;;;5210542;28;20032;-81
2022/08/29 07:19:36;;;;;;;6.80;5.97;;;;;;;;;;5211561;28;20024;-82
2022/08/29 07:22:06;;;;;;;6.95;5.82;;;;;;;;;;5194634;28;20369;-81
2022/08/29 07:24:36;;;;;;;5.07;4.45;;;;;;;;;;5212396;28;20018;-82
2022/08/29 07:27:08;;;;;;;5.40;4.90;;;;;;;;;;5211965;28;20021;-79
2022/08/29 07:29:38;;;;;;;6.13;5.13;;;;;;;;;;5209346;28;20356;-79
2022/08/29 07:32:42;;;;;;;6.97;5.13;;;;;;;;;;5211669;28;20053;-81
2022/08/29 07:35:13;;;;;;;4.22;3.92;;;;;;;;;;5210027;28;20387;-81
2022/08/29 07:37:43;;;;;;;5.15;4.75;;;;;;;;;;5192321;28;20017;-82
2022/08/29 07:40:16;;;;;;;6.28;5.68;;;;;;;;;;5210616;28;20052;-81
2022/08/29 07:42:46;;;;;;;5.30;4.80;;;;;;;;;;5212498;28;20017;-81
2022/08/29 07:45:17;;;;;;;10.45;6.45;;;;;;;;;;5209096;28;20100;-80
2022/08/29 07:47:47;;;;;;;7.38;4.70;;;;;;;;;;5191181;28;20026;-80
2022/08/29 07:50:17;;;;;;;5.90;5.50;;;;;;;;;;5208198;28;20048;-80
2022/08/29 07:52:47;;;;;;;5.75;4.78;;;;;;;;;;5208526;28;20280;-80
2022/08/29 07:55:20;;;;;;;6.47;5.82;;;;;;;;;;5207881;28;20021;-80
2022/08/29 07:57:51;;;;;;;5.57;5.07;;;;;;;;;;5209940;28;20483;-80
2022/08/29 08:00:21;;;;;;;7.22;4.18;;;;;;;;;;5210204;28;20020;-80
2022/08/29 08:02:51;;;;;;;12.18;7.05;;;;;;;;;;5209960;28;20021;-80
2022/08/29 08:05:22;;;;;;;10.20;6.18;;;;;;;;;;5210119;28;20029;-83
2022/08/29 08:07:52;;;;;;;6.30;5.43;;;;;;;;;;5211323;28;20032;-81
2022/08/29 08:10:23;;;;;;;7.40;5.18;;;;;;;;;;5210374;28;20461;-82
2022/08/29 08:12:53;;;;;;;5.38;4.97;;;;;;;;;;5211950;28;20060;-81
2022/08/29 08:15:23;;;;;;;6.60;4.68;;;;;;;;;;5214808;28;20044;-81
2022/08/29 08:17:53;;;;;;;8.45;5.07;;;;;;;;;;5216491;28;20455;-80
2022/08/29 08:20:24;;;;;;;4.38;4.07;;;;;;;;;;5217247;28;20097;-81
2022/08/29 08:22:54;;;;;;;5.40;4.88;;;;;;;;;;5213666;28;20144;-80
2022/08/29 08:25:25;;;;;;;6.18;4.28;;;;;;;;;;5190293;28;20013;-81
2022/08/29 08:27:55;;;;;;;5.13;3.75;;;;;;;;;;5192833;28;20538;-81
2022/08/29 08:30:26;;;;;;;5.93;5.40;;;;;;;;;;5195078;28;20083;-81
2022/08/29 08:32:56;;;;;;;8.00;3.85;;;;;;;;;;5193248;28;20084;-80
2022/08/29 08:35:26;;;;;;;14.53;5.50;;;;;;;;;;5192285;28;20036;-79
2022/08/29 08:37:56;;;;;;;5.90;5.40;;;;;;;;;;5211625;28;20293;-79
2022/08/29 08:40:29;;;;;;;11.10;4.53;;;;;;;;;;5193738;28;20033;-82
2022/08/29 08:43:00;;;;;;;7.30;5.43;;;;;;;;;;5209609;28;20049;-82
2022/08/29 08:45:38;;;;;;;6.90;4.57;;;;;;;;;;5208611;28;20097;-79
2022/08/29 08:48:14;;;;;;;4.82;4.40;;;;;;;;;;5207954;28;20088;-81
2022/08/29 08:50:58;;;;;;;7.93;4.82;;;;;;;;;;5207961;28;20033;-81
2022/08/29 08:53:39;;;;;;;4.53;4.13;;;;;;;;;;5206754;28;20017;-80
2022/08/29 08:56:15;;;;;;;4.07;3.78;;;;;;;;;;5208209;28;20021;-80
2022/08/29 08:58:54;;;;;;;9.02;6.18;;;;;;;;;;5207081;28;20028;-80
2022/08/29 09:01:27;;;;;;;9.05;5.28;;;;;;;;;;5206943;28;20551;-81
2022/08/29 09:04:01;;;;;;;4.25;3.95;;;;;;;;;;5205591;28;20075;-79
2022/08/29 09:06:38;;;;;;;4.55;4.15;;;;;;;;;;5206855;28;20145;-80
2022/08/29 09:09:09;;;;;;;8.95;5.40;;;;;;;;;;5206651;28;20170;-80
2022/08/29 09:11:48;;;;;;;4.65;4.25;;;;;;;;;;5188454;28;20483;-81
2022/08/29 09:20:35;;;;;;;6.55;4.63;;;;;;;;;;5222200;22;20528;-66
2022/08/29 09:23:17;;;;;;;11.63;5.63;;;;;;;;;;5160957;28;20046;-66
2022/08/29 09:25:47;;;;;;;5.20;4.40;;;;;;;;;;5144706;28;20014;-66
2022/08/29 09:28:17;;;;;;;3.77;3.47;;;;;;;;;;5171441;28;20568;-66
2022/08/29 09:31:23;;;;;;;10.55;4.78;;;;;;;;;;5164391;28;20272;-66
2022/08/29 09:33:54;;;;;;;9.80;6.38;;;;;;;;;;5138615;28;20039;-66
2022/08/29 09:36:39;;;;;;;4.85;3.55;;;;;;;;;;5157436;28;20049;-66
2022/08/29 09:39:09;;;;;;;7.50;3.92;;;;;;;;;;5185582;28;20434;-63
2022/08/29 09:41:40;;;;;;;5.87;3.57;;;;;;;;;;5184408;28;20026;-65
2022/08/29 09:44:12;;;;;;;5.13;4.68;;;;;;;;;;5185932;28;20311;-66
2022/08/29 09:46:42;;;;;;;7.65;4.05;;;;;;;;;;5186733;28;20480;-65
2022/08/29 09:49:17;;;;;;;7.95;4.53;;;;;;;;;;5186140;28;20080;-66
2022/08/29 09:51:48;;;;;;;5.35;4.90;;;;;;;;;;5167347;28;20474;-66
2022/08/29 09:54:25;;;;;;;3.47;3.17;;;;;;;;;;5184048;28;20025;-66
2022/08/29 09:57:07;;;;;;;5.95;5.53;;;;;;;;;;5184047;28;20402;-66
2022/08/29 09:59:42;;;;;;;7.63;4.90;;;;;;;;;;5182647;28;20474;-66
2022/08/29 10:02:12;;;;;;;10.95;4.38;;;;;;;;;;5186251;28;20022;-66
2022/08/29 10:04:44;;;;;;;5.13;4.03;;;;;;;;;;5184251;28;20014;-66
2022/08/29 10:07:16;;;;;;;4.47;4.07;;;;;;;;;;5185049;28;20265;-66
2022/08/29 10:10:12;;;;;;;4.13;3.25;;;;;;;;;;5183157;28;20026;-66
2022/08/29 10:12:50;;;;;;;4.43;4.00;;;;;;;;;;5164608;28;20034;-67
2022/08/29 10:15:23;;;;;;;5.50;4.95;;;;;;;;;;5183369;28;20018;-66
2022/08/29 10:18:22;;;;;;;9.02;6.22;;;;;;;;;;5183818;28;20120;-66
2022/08/29 10:20:52;;;;;;;;;;;;;;;;;;5184000;28;20183;-66
2022/08/29 10:23:38;;;;;;;7.40;3.90;;;;;;;;;;5183432;28;20452;-66
2022/08/29 10:26:19;;;;;;;5.68;5.18;;;;;;;;;;5183839;28;20474;-67
2022/08/29 10:28:54;;;;;;;5.43;4.35;;;;;;;;;;5183975;28;20025;-66
2022/08/29 10:31:45;;;;;;;4.65;3.97;;;;;;;;;;5450736;22;20245;-67
2022/08/29 10:34:22;;;;;;;4.28;3.97;;;;;;;;;;5205024;28;20385;-67
2022/08/29 10:36:59;;;;;;;4.90;4.47;;;;;;;;;;5206019;28;20049;-67
2022/08/29 10:39:38;;;;;;;6.47;3.10;;;;;;;;;;5205674;28;20044;-66
2022/08/29 10:42:12;;;;;;;5.15;4.07;;;;;;;;;;5206276;28;20071;-66
2022/08/29 10:45:01;;;;;;;4.57;4.18;;;;;;;;;;5205540;28;20022;-66
2022/08/29 10:47:37;;;;;;;13.18;4.10;;;;;;;;;;5204482;28;20031;-67
2022/08/29 10:50:08;;;;;;;4.50;3.45;;;;;;;;;;5204070;28;20092;-67
2022/08/29 10:52:41;;;;;;;4.50;4.10;;;;;;;;;;5187868;28;20117;-66
2022/08/29 10:55:19;;;;;;;3.60;3.15;;;;;;;;;;5204958;28;20095;-66
2022/08/29 10:58:05;;;;;;;6.10;4.15;;;;;;;;;;5202779;28;20029;-67
2022/08/29 11:00:55;;;;;;;7.75;5.28;;;;;;;;;;5205306;28;20024;-67
2022/08/29 11:03:39;;;;;;;3.88;3.55;;;;;;;;;;5205745;28;20048;-67
2022/08/29 11:06:24;;;;;;;5.05;3.97;;;;;;;;;;5205913;28;20282;-67
2022/08/29 11:09:00;;;;;;;6.05;3.95;;;;;;;;;;5204050;28;20045;-67
2022/08/29 11:11:31;;;;;;;4.60;4.18;;;;;;;;;;5205975;28;20020;-67
2022/08/29 11:14:05;;;;;;;6.50;3.78;;;;;;;;;;5187819;28;20029;-67
2022/08/29 11:16:38;;;;;;;8.43;4.40;;;;;;;;;;5187896;28;20474;-67
2022/08/29 11:19:25;;;;;;;4.78;4.10;;;;;;;;;;5187415;28;20032;-68
2022/08/29 11:21:56;;;;;;;3.92;3.08;;;;;;;;;;5205292;28;20028;-68
2022/08/29 11:24:29;;;;;;;4.25;3.90;;;;;;;;;;5187156;28;20029;-67
2022/08/29 11:26:59;;;;;;;3.72;3.03;;;;;;;;;;5205240;28;20029;-67
2022/08/29 11:29:48;;;;;;;7.10;3.53;;;;;;;;;;5208714;28;20537;-68
2022/08/29 11:32:34;;;;;;;7.00;4.50;;;;;;;;;;5233826;22;20304;-62
2022/08/29 11:35:07;;;;;;;3.53;3.28;;;;;;;;;;5204715;28;20022;-62
2022/08/29 11:37:51;;;;;;;4.22;3.85;;;;;;;;;;5204876;28;20049;-65
2022/08/29 11:40:40;;;;;;;4.80;3.85;;;;;;;;;;5205361;28;20013;-62
2022/08/29 11:43:13;;;;;;;3.65;2.85;;;;;;;;;;5187448;28;20028;-62
2022/08/29 11:45:52;;;;;;;3.30;3.10;;;;;;;;;;5204364;28;20386;-62
2022/08/29 11:48:42;;;;;;;7.57;4.50;;;;;;;;;;5212593;28;20112;-62
2022/08/29 11:51:32;;;;;;;4.10;3.72;;;;;;;;;;5204370;28;20100;-62
2022/08/29 11:54:21;;;;;;;3.80;3.60;;;;;;;;;;5184595;28;20032;-62
2022/08/29 11:56:57;;;;;;;4.18;3.92;;;;;;;;;;5204799;28;20534;-63
2022/08/29 11:59:43;;;;;;;4.65;3.63;;;;;;;;;;5205081;28;20034;-67
2022/08/29 12:02:32;;;;;;;5.65;3.33;;;;;;;;;;5204795;28;20100;-62
2022/08/29 12:05:19;;;;;;;4.50;4.20;;;;;;;;;;5204434;28;20029;-62
2022/08/29 12:07:49;;;;;;;3.83;3.63;;;;;;;;;;5204946;28;20026;-62
2022/08/29 12:10:22;;;;;;;4.20;3.92;;;;;;;;;;5204095;28;20025;-61
2022/08/29 12:12:55;;;;;;;4.38;3.97;;;;;;;;;;5204908;28;20483;-62
2022/08/29 12:15:28;;;;;;;8.23;3.70;;;;;;;;;;5204109;28;20053;-62
2022/08/29 12:18:00;;;;;;;3.50;3.22;;;;;;;;;;5204622;28;20393;-62
2022/08/29 12:20:30;;;;;;;6.80;4.13;;;;;;;;;;5204803;28;20097;-62
2022/08/29 12:23:09;;;;;;;3.83;3.47;;;;;;;;;;5204710;28;20488;-62
2022/08/29 12:25:41;;;;;;;;;;;;;;;;;;5186101;28;20049;-61
2022/08/29 12:28:14;;;;;;;3.97;3.70;;;;;;;;;;5204760;28;19905;-61
2022/08/29 12:30:57;;;;;;;4.82;3.75;;;;;;;;;;5202352;28;20017;-61
2022/08/29 12:33:34;;;;;;;4.45;3.78;;;;;;;;;;5203446;28;20036;-61
2022/08/29 12:36:27;;;;;;;4.82;3.78;;;;;;;;;;5203469;28;20023;-61
2022/08/29 12:39:00;;;;;;;4.50;3.53;;;;;;;;;;5203987;28;20025;-61
2022/08/29 12:41:49;;;;;;;6.38;3.25;;;;;;;;;;5201788;28;20132;-61
2022/08/29 12:44:40;;;;;;;2.47;2.28;;;;;;;;;;5202883;28;20017;-61
2022/08/29 12:47:33;;;;;;;4.10;2.85;;;;;;;;;;5185150;28;20040;-61
2022/08/29 12:50:12;;;;;;;7.28;3.38;;;;;;;;;;5173050;28;20036;-61
2022/08/29 12:52:42;;;;;;;5.25;4.82;;;;;;;;;;5202979;28;20014;-62
2022/08/29 12:55:18;;;;;;;4.38;3.90;;;;;;;;;;5185439;28;20040;-62
2022/08/29 12:57:49;;;;;;;6.18;4.75;;;;;;;;;;5203418;28;20104;-62
2022/08/29 13:00:22;;;;;;;3.10;2.55;;;;;;;;;;5203215;28;20347;-62
2022/08/29 13:03:15;;;;;;;5.22;3.88;;;;;;;;;;5203377;28;20021;-62
2022/08/29 13:05:46;;;;;;;3.38;3.17;;;;;;;;;;5184808;28;20429;-60
2022/08/29 13:08:27;;;;;;;3.45;2.63;;;;;;;;;;5203600;28;20114;-62
2022/08/29 13:10:59;;;;;;;4.13;3.08;;;;;;;;;;5203042;28;20029;-63
2022/08/29 13:13:30;;;;;;;3.80;3.42;;;;;;;;;;5201507;28;20017;-63
2022/08/29 13:16:01;;;;;;;5.57;2.90;;;;;;;;;;5203199;28;20028;-62
2022/08/29 13:18:32;;;;;;;3.25;3.05;;;;;;;;;;5185772;28;20322;-62
2022/08/29 13:21:02;;;;;;;2.67;2.47;;;;;;;;;;5204234;28;20385;-62
2022/08/29 13:23:35;;;;;;;3.03;2.83;;;;;;;;;;5203398;28;20055;-62
2022/08/29 13:26:27;;;;;;;2.92;2.45;;;;;;;;;;5185816;28;20021;-62
2022/08/29 13:29:18;;;;;;;3.78;2.75;;;;;;;;;;5203286;28;20028;-63
2022/08/29 13:32:27;;;;;;;4.07;2.83;;;;;;;;;;5202352;28;20037;-63
2022/08/29 13:35:12;;;;;;;4.07;3.72;;;;;;;;;;5084382;29;20079;-62
2022/08/29 13:37:44;;;;;;;4.80;3.30;;;;;;;;;;5099483;29;20107;-62
2022/08/29 13:40:27;;;;;;;3.40;3.20;;;;;;;;;;5164999;28;20029;-62
2022/08/29 13:42:58;;;;;;;2.92;2.67;;;;;;;;;;5203319;28;20025;-62
2022/08/29 13:45:28;;;;;;;2.67;2.53;;;;;;;;;;5202291;28;20018;-62
2022/08/29 13:48:11;;;;;;;4.35;3.70;;;;;;;;;;5203534;28;20026;-62
2022/08/29 13:50:41;;;;;;;3.90;3.60;;;;;;;;;;5203107;28;20022;-63
2022/08/29 13:53:11;;;;;;;4.60;3.40;;;;;;;;;;5201409;28;20044;-62
2022/08/29 13:55:42;;;;;;;2.67;2.58;;;;;;;;;;5202792;28;20028;-64
2022/08/29 13:58:13;;;;;;;3.83;3.55;;;;;;;;;;5203133;28;20204;-62
2022/08/29 14:00:43;;;;;;;2.88;2.67;;;;;;;;;;5202913;28;20018;-62
2022/08/29 14:03:15;;;;;;;2.83;2.70;;;;;;;;;;5202661;28;20389;-62
2022/08/29 14:05:45;;;;;;;3.38;2.53;;;;;;;;;;5202431;28;20489;-62
2022/08/29 14:08:16;;;;;;;4.63;3.80;;;;;;;;;;5202927;28;20096;-62
2022/08/29 14:10:46;;;;;;;5.67;3.80;;;;;;;;;;5203002;28;20480;-63
2022/08/29 14:13:16;;;;;;;3.30;3.10;;;;;;;;;;5202774;28;20263;-63
2022/08/29 14:15:46;;;;;;;5.95;5.45;;;;;;;;;;5201240;28;20021;-63
2022/08/29 14:18:17;;;;;;;3.33;3.03;;;;;;;;;;5202264;28;20200;-63
2022/08/29 14:20:47;;;;;;;2.97;2.53;;;;;;;;;;5185000;28;20014;-63
2022/08/29 14:23:17;;;;;;;3.50;3.20;;;;;;;;;;5203500;28;20091;-63
2022/08/29 14:25:48;;;;;;;3.33;3.13;;;;;;;;;;5188213;28;20021;-62
2022/08/29 14:28:18;;;;;;;6.30;2.70;;;;;;;;;;5205707;28;20033;-63
2022/08/29 14:30:48;;;;;;;8.53;3.10;;;;;;;;;;5188334;28;20379;-63
2022/08/29 14:33:19;;;;;;;4.50;3.28;;;;;;;;;;5204597;28;20699;-64
2022/08/29 14:35:49;;;;;;;2.75;2.55;;;;;;;;;;5205383;28;20049;-63
2022/08/29 14:38:20;;;;;;;3.13;2.92;;;;;;;;;;5187986;28;20440;-63
2022/08/29 14:40:50;;;;;;;3.42;2.78;;;;;;;;;;5205806;28;20029;-63
2022/08/29 14:43:20;;;;;;;3.97;3.23;;;;;;;;;;5205396;28;20029;-63
2022/08/29 14:45:50;;;;;;;3.13;2.83;;;;;;;;;;5204433;28;20339;-63
2022/08/29 14:48:21;;;;;;;2.23;2.13;;;;;;;;;;5205854;28;20268;-62
2022/08/29 14:50:51;;;;;;;3.22;3.03;;;;;;;;;;5205942;28;20268;-62
2022/08/29 14:53:22;;;;;;;3.28;3.08;;;;;;;;;;5205571;28;20105;-63
2022/08/29 14:55:53;;;;;;;2.72;2.50;;;;;;;;;;5206080;28;20099;-63
2022/08/29 14:58:23;;;;;;;3.78;3.47;;;;;;;;;;5205769;28;20025;-63
2022/08/29 15:00:54;;;;;;;4.03;3.37;;;;;;;;;;5205913;28;20389;-63
2022/08/29 15:03:24;;;;;;;3.63;2.67;;;;;;;;;;5205374;28;20748;-63
2022/08/29 15:05:55;;;;;;;3.00;2.80;;;;;;;;;;5205284;28;20013;-63
2022/08/29 15:08:25;;;;;;;4.25;3.88;;;;;;;;;;5205683;28;20040;-63
2022/08/29 15:10:55;;;;;;;5.63;3.03;;;;;;;;;;5205707;28;20097;-63
2022/08/29 15:13:25;;;;;;;4.07;2.88;;;;;;;;;;5204000;28;20264;-62
2022/08/29 15:15:57;;;;;;;2.47;2.33;;;;;;;;;;5205641;28;20116;-63
2022/08/29 15:18:27;;;;;;;4.30;3.90;;;;;;;;;;5204965;28;20026;-62
2022/08/29 15:20:57;;;;;;;3.33;3.13;;;;;;;;;;5204761;28;20028;-62
2022/08/29 15:23:27;;;;;;;3.95;3.65;;;;;;;;;;5205003;28;20034;-63
2022/08/29 15:25:58;;;;;;;2.80;2.60;;;;;;;;;;5205046;28;20014;-63
2022/08/29 15:28:28;;;;;;;4.00;2.90;;;;;;;;;;5205018;28;20159;-62
2022/08/29 15:30:59;;;;;;;3.83;2.77;;;;;;;;;;5204410;28;20029;-62